createdAt,value
2022-08-10T00:01:52.492Z,48.73
2022-08-10T00:04:23.829Z,51.18
2022-08-10T00:06:52.628Z,50.35
2022-08-10T00:09:19.193Z,48.23
2022-08-10T00:11:45.674Z,47.16
2022-08-10T00:14:12.140Z,50.15
2022-08-10T00:16:38.656Z,50.10
2022-08-10T00:19:05.133Z,51.13
2022-08-10T00:21:31.590Z,50.64
2022-08-10T00:23:58.037Z,49.71
2022-08-10T00:26:24.516Z,47.87
2022-08-10T00:28:51.103Z,49.35
2022-08-10T00:31:17.617Z,47.72
2022-08-10T00:33:44.102Z,48.26
2022-08-10T00:36:10.618Z,50.35
2022-08-10T00:38:37.650Z,50.64
2022-08-10T00:41:04.465Z,51.08
2022-08-10T00:43:30.995Z,49.96
2022-08-10T00:45:59.809Z,49.54
2022-08-10T00:48:30.671Z,48.94
2022-08-10T00:51:00.916Z,47.98
2022-08-10T00:53:28.394Z,47.26
2022-08-10T00:57:12.691Z,47.25
2022-08-10T00:58:43.176Z,51.04
2022-08-10T01:01:23.550Z,52.31
2022-08-10T01:04:36.284Z,50.33
2022-08-10T01:07:11.309Z,52.12
2022-08-10T01:09:37.690Z,51.60
2022-08-10T01:12:38.792Z,51.62
2022-08-10T01:15:16.475Z,51.34
2022-08-10T01:17:50.402Z,49.92
2022-08-10T01:20:30.686Z,49.95
2022-08-10T01:23:24.964Z,51.09
2022-08-10T01:26:31.440Z,52.08
2022-08-10T01:29:36.314Z,50.37
2022-08-10T01:32:07.298Z,51.44
2022-08-10T01:34:52.219Z,52.45
2022-08-10T01:37:24.671Z,52.78
2022-08-10T01:39:57.428Z,52.90
2022-08-10T01:42:25.613Z,53.47
2022-08-10T01:44:56.238Z,52.47
2022-08-10T01:47:52.108Z,51.69
2022-08-10T01:50:24.405Z,50.71
2022-08-10T01:52:56.031Z,51.18
2022-08-10T01:55:24.954Z,50.72
2022-08-10T01:57:53.615Z,53.12
2022-08-10T02:00:20.494Z,53.33
2022-08-10T02:02:47.919Z,52.49
2022-08-10T02:05:15.925Z,52.41
2022-08-10T02:07:44.009Z,50.72
2022-08-10T02:10:13.117Z,49.25
2022-08-10T02:12:43.026Z,50.05
2022-08-10T02:15:14.664Z,48.67
2022-08-10T02:17:57.987Z,48.44
2022-08-10T02:20:36.620Z,48.98
2022-08-10T02:23:09.031Z,48.40
2022-08-10T02:25:41.260Z,48.57
2022-08-10T02:28:10.859Z,48.68
2022-08-10T02:30:38.162Z,48.93
2022-08-10T02:33:06.617Z,48.83
2022-08-10T02:35:54.603Z,50.92
2022-08-10T02:38:59.392Z,51.09
2022-08-10T02:45:15.845Z,49.84
2022-08-10T02:45:27.814Z,50.83
2022-08-10T02:47:55.289Z,50.04
2022-08-10T02:50:38.153Z,49.96
2022-08-10T02:53:49.607Z,49.55
2022-08-10T02:56:09.807Z,50.57
2022-08-10T02:58:45.135Z,49.75
2022-08-10T03:01:16.144Z,50.13
2022-08-10T03:03:52.179Z,52.30
2022-08-10T03:06:25.514Z,53.62
2022-08-10T03:08:54.078Z,55.21
2022-08-10T03:12:35.035Z,54.06
2022-08-10T03:14:12.072Z,54.67
2022-08-10T03:16:39.817Z,53.36
2022-08-10T03:20:33.956Z,55.18
2022-08-10T03:21:55.712Z,55.08
2022-08-10T03:24:30.392Z,55.40
2022-08-10T03:27:00.374Z,55.34
2022-08-10T03:29:29.007Z,54.88
2022-08-10T03:31:56.935Z,55.70
2022-08-10T03:34:33.410Z,55.65
2022-08-10T03:37:00.668Z,55.17
2022-08-10T03:39:27.633Z,55.90
2022-08-10T03:41:58.767Z,56.54
2022-08-10T03:44:29.804Z,56.94
2022-08-10T03:46:59.810Z,54.64
2022-08-10T03:49:28.386Z,52.46
2022-08-10T03:51:55.646Z,51.98
2022-08-10T03:54:24.337Z,53.77
2022-08-10T03:56:51.403Z,54.81
2022-08-10T03:59:18.072Z,54.22
2022-08-10T04:02:45.056Z,55.63
2022-08-10T04:04:33.514Z,54.72
2022-08-10T04:07:01.165Z,55.09
2022-08-10T04:09:53.504Z,54.95
2022-08-10T04:12:20.869Z,55.82
2022-08-10T04:14:50.886Z,54.89
2022-08-10T04:18:02.602Z,54.81
2022-08-10T04:20:20.801Z,52.52
2022-08-10T04:22:52.001Z,53.56
2022-08-10T04:25:20.121Z,53.52
2022-08-10T04:27:47.167Z,54.97
2022-08-10T04:30:14.316Z,56.35
2022-08-10T04:32:42.208Z,57.02
2022-08-10T04:35:10.980Z,55.73
2022-08-10T04:37:46.843Z,55.06
2022-08-10T04:40:25.237Z,55.24
2022-08-10T04:43:02.345Z,52.77
2022-08-10T04:45:50.566Z,53.96
2022-08-10T04:48:40.490Z,55.89
2022-08-10T04:51:02.497Z,54.47
2022-08-10T04:53:30.887Z,53.51
2022-08-10T04:55:57.363Z,55.04
2022-08-10T04:58:23.959Z,56.32
2022-08-10T05:00:50.513Z,55.80
2022-08-10T05:03:17.005Z,56.89
2022-08-10T05:05:43.596Z,55.66
2022-08-10T05:08:10.219Z,56.96
2022-08-10T05:13:25.470Z,54.76
2022-08-10T05:15:53.538Z,53.35
2022-08-10T05:18:20.305Z,53.09
2022-08-10T05:20:50.115Z,53.97
2022-08-10T05:23:16.824Z,55.04
2022-08-10T05:25:43.336Z,55.00
2022-08-10T05:28:09.914Z,53.00
2022-08-10T05:30:36.627Z,52.87
2022-08-10T05:33:08.138Z,54.74
2022-08-10T05:35:57.568Z,55.51
2022-08-10T05:38:23.375Z,54.34
2022-08-10T05:40:50.212Z,53.13
2022-08-10T05:43:18.434Z,54.88
2022-08-10T05:46:17.522Z,51.55
2022-08-10T05:48:41.733Z,54.44
2022-08-10T05:51:20.554Z,52.22
2022-08-10T05:54:02.480Z,51.25
2022-08-10T05:56:55.787Z,52.18
2022-08-10T06:00:33.083Z,54.07
2022-08-10T06:02:31.393Z,53.59
2022-08-10T06:04:58.635Z,50.40
2022-08-10T06:07:27.417Z,53.15
2022-08-10T06:09:58.656Z,52.33
2022-08-10T06:12:30.221Z,52.24
2022-08-10T06:15:05.828Z,50.07
2022-08-10T06:17:38.392Z,49.06
2022-08-10T06:20:05.945Z,49.65
2022-08-10T06:22:33.142Z,46.83
2022-08-10T06:25:37.690Z,45.42
2022-08-10T06:27:54.859Z,45.12
2022-08-10T06:30:23.273Z,48.24
2022-08-10T06:32:51.371Z,46.25
2022-08-10T06:35:19.245Z,45.33
2022-08-10T06:37:50.712Z,43.13
2022-08-10T06:40:19.103Z,45.00
2022-08-10T06:42:49.997Z,44.40
2022-08-10T06:45:29.393Z,42.97
2022-08-10T06:48:02.342Z,45.20
2022-08-10T06:50:59.206Z,42.38
2022-08-10T06:53:53.961Z,42.33
2022-08-10T06:56:20.611Z,44.03
2022-08-10T06:59:21.364Z,45.19
2022-08-10T07:01:57.380Z,42.52
2022-08-10T07:04:33.757Z,43.76
2022-08-10T07:07:06.377Z,42.79
2022-08-10T07:09:36.376Z,44.45
2022-08-10T07:12:07.660Z,44.41
2022-08-10T07:14:42.542Z,43.14
2022-08-10T07:17:19.423Z,40.66
2022-08-10T07:19:49.633Z,40.86
2022-08-10T07:23:50.721Z,39.94
2022-08-10T07:25:08.152Z,40.12
2022-08-10T07:27:40.705Z,43.76
2022-08-10T07:30:22.412Z,42.00
2022-08-10T07:32:52.629Z,42.16
2022-08-10T07:35:22.111Z,39.49
2022-08-10T07:37:51.637Z,40.41
2022-08-10T07:40:20.393Z,42.09
2022-08-10T07:42:50.901Z,38.55
2022-08-10T07:45:17.558Z,38.54
2022-08-10T07:47:55.718Z,36.85
2022-08-10T07:50:24.795Z,36.15
2022-08-10T07:52:53.469Z,38.03
2022-08-10T07:56:03.964Z,38.76
2022-08-10T07:58:09.028Z,36.19
2022-08-10T08:00:37.147Z,37.35
2022-08-10T08:03:07.153Z,36.13
2022-08-10T08:05:58.734Z,36.74
2022-08-10T08:08:22.984Z,37.58
2022-08-10T08:10:50.974Z,36.59
2022-08-10T08:13:20.428Z,35.40
2022-08-10T08:16:18.860Z,35.57
2022-08-10T08:18:37.072Z,34.98
2022-08-10T08:21:07.620Z,35.61
2022-08-10T08:24:11.224Z,35.43
2022-08-10T08:26:38.974Z,34.95
2022-08-10T08:29:06.020Z,34.79
2022-08-10T08:31:32.867Z,36.15
2022-08-10T08:34:01.042Z,35.58
2022-08-10T08:36:28.378Z,35.53
2022-08-10T08:38:55.475Z,35.86
2022-08-10T08:41:27.978Z,36.10
2022-08-10T08:44:14.263Z,35.59
2022-08-10T08:46:59.687Z,34.28
2022-08-10T08:50:04.532Z,34.04
2022-08-10T08:52:18.705Z,34.49
2022-08-10T08:56:03.748Z,33.50
2022-08-10T08:58:03.360Z,34.49
2022-08-10T09:00:51.094Z,34.24
2022-08-10T09:03:29.801Z,34.30
2022-08-10T09:06:15.226Z,33.04
2022-08-10T09:09:19.369Z,32.95
2022-08-10T09:12:22.596Z,32.41
2022-08-10T09:14:56.754Z,32.07
2022-08-10T09:17:42.172Z,31.00
2022-08-10T09:20:13.815Z,34.48
2022-08-10T09:22:58.736Z,34.70
2022-08-10T09:25:34.132Z,31.76
2022-08-10T09:28:00.550Z,30.78
2022-08-10T09:30:35.707Z,30.37
2022-08-10T09:36:24.759Z,30.29
2022-08-10T09:36:32.486Z,29.87
2022-08-10T09:39:07.741Z,31.21
2022-08-10T09:41:58.179Z,30.06
2022-08-10T09:44:57.663Z,30.20
2022-08-10T09:48:02.068Z,31.96
2022-08-10T09:54:04.629Z,32.29
2022-08-10T09:57:24.381Z,30.68
2022-08-10T10:00:02.825Z,32.76
2022-08-10T10:02:39.412Z,30.68
2022-08-10T10:05:52.224Z,31.61
2022-08-10T10:08:21.921Z,31.59
2022-08-10T10:11:00.143Z,29.38
2022-08-10T10:14:01.767Z,27.81
2022-08-10T10:16:52.215Z,30.66
2022-08-10T10:19:30.150Z,29.84
2022-08-10T10:22:26.231Z,28.95
2022-08-10T10:25:01.952Z,31.27
2022-08-10T10:28:44.395Z,28.77
2022-08-10T10:31:24.597Z,30.76
2022-08-10T10:33:59.942Z,30.38
2022-08-10T10:36:28.174Z,30.25
2022-08-10T10:38:58.023Z,30.42
2022-08-10T10:42:03.528Z,30.01
2022-08-10T10:45:01.094Z,30.68
2022-08-10T10:47:46.203Z,28.94
2022-08-10T10:50:19.542Z,31.19
2022-08-10T10:52:51.864Z,30.69
2022-08-10T10:56:14.450Z,30.74
2022-08-10T10:58:51.982Z,29.30
2022-08-10T11:01:21.748Z,28.90
2022-08-10T11:04:09.056Z,28.73
2022-08-10T11:07:14.606Z,27.95
2022-08-10T11:10:05.210Z,30.04
2022-08-10T11:12:50.901Z,29.70
2022-08-10T11:15:26.613Z,30.35
2022-08-10T11:18:01.309Z,30.70
2022-08-10T11:20:40.300Z,30.11
2022-08-10T11:23:28.747Z,29.15
2022-08-10T11:26:03.258Z,29.35
2022-08-10T11:28:36.983Z,28.18
2022-08-10T11:31:15.799Z,30.47
2022-08-10T11:37:10.245Z,28.70
2022-08-10T11:39:52.887Z,28.33
2022-08-10T11:42:35.841Z,28.97
2022-08-10T11:45:13.165Z,29.31
2022-08-10T11:47:53.684Z,28.27
2022-08-10T11:50:22.664Z,27.90
2022-08-10T11:52:53.547Z,28.75
2022-08-10T11:55:23.435Z,28.94
2022-08-10T11:57:55.810Z,29.19
2022-08-10T12:00:24.276Z,27.71
2022-08-10T12:02:56.501Z,28.11
2022-08-10T12:05:46.447Z,26.54
2022-08-10T12:10:07.220Z,28.09
2022-08-10T12:11:06.454Z,28.32
2022-08-10T12:14:10.765Z,27.77
2022-08-10T12:16:40.022Z,28.19
2022-08-10T12:19:11.197Z,28.02
2022-08-10T12:21:49.686Z,27.23
2022-08-10T12:24:20.139Z,27.96
2022-08-10T12:27:01.522Z,26.78
2022-08-10T12:29:32.121Z,26.28
2022-08-10T12:32:11.139Z,25.98
2022-08-10T12:34:50.919Z,26.60
2022-08-10T12:37:21.373Z,28.77
2022-08-10T12:40:31.434Z,26.59
2022-08-10T12:43:13.026Z,26.42
2022-08-10T12:46:03.069Z,26.49
2022-08-10T12:49:19.843Z,28.40
2022-08-10T12:51:53.354Z,27.98
2022-08-10T12:54:32.605Z,28.14
2022-08-10T12:57:11.379Z,26.53
2022-08-10T12:59:43.787Z,27.07
2022-08-10T13:02:19.992Z,26.82
2022-08-10T13:04:51.254Z,27.78
2022-08-10T13:08:25.327Z,26.71
2022-08-10T13:10:15.394Z,26.16
2022-08-10T13:12:48.854Z,26.21
2022-08-10T13:15:31.034Z,25.89
2022-08-10T13:18:05.932Z,26.42
2022-08-10T13:20:45.530Z,25.71
2022-08-10T13:23:20.755Z,26.61
2022-08-10T13:25:50.394Z,25.36
2022-08-10T13:28:35.706Z,24.81
2022-08-10T13:31:17.043Z,25.34
2022-08-10T13:34:39.776Z,25.91
2022-08-10T13:36:49.328Z,25.70
2022-08-10T13:39:19.648Z,26.67
2022-08-10T13:41:48.035Z,26.34
2022-08-10T13:44:20.337Z,26.00
2022-08-10T13:46:54.691Z,25.97
2022-08-10T13:49:22.084Z,27.33
2022-08-10T13:51:53.917Z,27.50
2022-08-10T13:54:35.998Z,27.57
2022-08-10T13:57:04.650Z,26.00
2022-08-10T14:00:33.731Z,27.17
2022-08-10T14:02:40.654Z,27.27
2022-08-10T14:05:08.625Z,27.69
2022-08-10T14:07:40.469Z,26.28
2022-08-10T14:11:09.939Z,26.39
2022-08-10T14:13:25.272Z,26.94
2022-08-10T14:15:52.858Z,25.52
2022-08-10T14:18:20.966Z,26.17
2022-08-10T14:20:48.774Z,27.24
2022-08-10T14:23:15.765Z,26.12
2022-08-10T14:25:55.857Z,26.52
2022-08-10T14:28:31.103Z,26.60
2022-08-10T14:31:04.533Z,26.07
2022-08-10T14:33:32.941Z,27.13
2022-08-10T14:36:21.465Z,27.85
2022-08-10T14:38:48.879Z,26.90
2022-08-10T14:42:02.581Z,26.87
2022-08-10T14:44:11.616Z,25.70
2022-08-10T14:46:44.486Z,25.79
2022-08-10T14:49:26.534Z,26.95
2022-08-10T14:52:00.150Z,26.84
2022-08-10T14:54:29.551Z,27.11
2022-08-10T14:57:11.289Z,26.39
2022-08-10T15:00:22.482Z,27.52
2022-08-10T15:02:40.937Z,27.77
2022-08-10T15:05:17.289Z,25.46
2022-08-10T15:07:58.955Z,26.47
2022-08-10T15:10:27.890Z,27.41
2022-08-10T15:12:58.651Z,27.15
2022-08-10T15:15:28.779Z,26.57
2022-08-10T15:17:58.363Z,26.80
2022-08-10T15:20:27.796Z,25.52
2022-08-10T15:23:00.009Z,25.70
2022-08-10T15:25:28.597Z,27.01
2022-08-10T15:28:10.597Z,26.04
2022-08-10T15:30:43.795Z,25.42
2022-08-10T15:34:04.507Z,25.29
2022-08-10T15:36:58.805Z,24.90
2022-08-10T15:40:22.438Z,24.11
2022-08-10T15:42:58.452Z,26.25
2022-08-10T15:45:25.344Z,26.72
2022-08-10T15:48:00.509Z,26.59
2022-08-10T15:50:40.077Z,26.14
2022-08-10T15:53:30.688Z,25.88
2022-08-10T15:56:00.664Z,25.29
2022-08-10T15:58:39.193Z,25.11
2022-08-10T16:02:15.117Z,26.88
2022-08-10T16:04:32.313Z,25.45
2022-08-10T16:07:01.074Z,25.02
2022-08-10T16:10:23.483Z,26.13
2022-08-10T16:12:34.373Z,26.96
2022-08-10T16:15:07.955Z,24.95
2022-08-10T16:17:54.766Z,25.60
2022-08-10T16:20:31.169Z,26.61
2022-08-10T16:23:02.766Z,26.24
2022-08-10T16:25:51.546Z,25.67
2022-08-10T16:28:20.084Z,25.89
2022-08-10T16:30:53.103Z,26.99
2022-08-10T16:33:24.084Z,26.87
2022-08-10T16:36:01.497Z,26.34
2022-08-10T16:38:28.780Z,26.34
2022-08-10T16:40:57.157Z,25.88
2022-08-10T16:43:24.616Z,24.75
2022-08-10T16:45:57.639Z,24.84
2022-08-10T16:48:48.896Z,25.12
2022-08-10T16:51:14.252Z,24.65
2022-08-10T16:53:47.554Z,25.09
2022-08-10T16:56:15.778Z,25.28
2022-08-10T16:58:46.175Z,26.13
2022-08-10T17:01:18.330Z,25.98
2022-08-10T17:04:06.700Z,27.03
2022-08-10T17:06:43.819Z,26.49
2022-08-10T17:09:18.338Z,25.41
2022-08-10T17:11:48.054Z,25.78
2022-08-10T17:14:14.961Z,25.87
2022-08-10T17:16:50.882Z,25.81
2022-08-10T17:19:21.108Z,26.87
2022-08-10T17:21:58.221Z,26.88
2022-08-10T17:24:34.634Z,26.78
2022-08-10T17:28:03.887Z,26.20
2022-08-10T17:30:04.257Z,26.42
2022-08-10T17:32:45.655Z,26.04
2022-08-10T17:35:23.424Z,25.81
2022-08-10T17:38:19.429Z,25.92
2022-08-10T17:40:47.902Z,26.48
2022-08-10T17:43:58.404Z,26.04
2022-08-10T17:46:12.039Z,26.59
2022-08-10T17:48:41.311Z,26.76
2022-08-10T17:51:11.038Z,27.13
2022-08-10T17:53:52.160Z,26.97
2022-08-10T17:56:20.687Z,25.74
2022-08-10T17:59:00.522Z,26.75
2022-08-10T18:01:41.263Z,27.36
2022-08-10T18:04:20.903Z,26.11
2022-08-10T18:06:56.154Z,27.05
2022-08-10T18:09:54.899Z,27.98
2022-08-10T18:12:32.486Z,27.46
2022-08-10T18:15:08.530Z,27.49
2022-08-10T18:17:43.331Z,28.17
2022-08-10T18:20:11.485Z,28.36
2022-08-10T18:22:47.433Z,28.89
2022-08-10T18:25:20.879Z,28.32
2022-08-10T18:28:04.153Z,28.15
2022-08-10T18:30:36.517Z,28.87
2022-08-10T18:33:08.499Z,29.22
2022-08-10T18:35:35.810Z,28.80
2022-08-10T18:38:03.872Z,29.08
2022-08-10T18:40:35.465Z,28.89
2022-08-10T18:44:02.854Z,29.58
2022-08-10T18:45:56.862Z,29.16
2022-08-10T18:48:33.214Z,29.65
2022-08-10T18:51:05.628Z,29.69
2022-08-10T18:53:47.936Z,30.29
2022-08-10T18:56:20.574Z,30.17
2022-08-10T18:59:08.491Z,30.00
2022-08-10T19:01:53.477Z,30.44
2022-08-10T19:04:31.001Z,29.54
2022-08-10T19:07:07.946Z,30.01
2022-08-10T19:09:47.411Z,29.67
2022-08-10T19:12:29.940Z,30.20
2022-08-10T19:14:58.156Z,30.13
2022-08-10T19:18:03.221Z,30.88
2022-08-10T19:20:51.258Z,30.45
2022-08-10T19:23:43.899Z,30.15
2022-08-10T19:26:43.394Z,30.73
2022-08-10T19:30:09.332Z,30.27
2022-08-10T19:33:08.951Z,30.97
2022-08-10T19:36:04.267Z,30.94
2022-08-10T19:39:33.080Z,30.64
2022-08-10T19:42:31.118Z,30.57
2022-08-10T19:46:00.980Z,30.74
2022-08-10T19:48:16.322Z,30.02
2022-08-10T19:51:13.423Z,30.20
2022-08-10T19:53:53.197Z,30.21
2022-08-10T19:56:35.613Z,30.29
2022-08-10T19:59:08.186Z,30.57
2022-08-10T20:01:55.080Z,30.66
2022-08-10T20:04:31.951Z,30.40
2022-08-10T20:07:18.962Z,30.79
2022-08-10T20:10:00.366Z,31.36
2022-08-10T20:12:43.002Z,32.57
2022-08-10T20:15:19.963Z,32.64
2022-08-10T20:18:07.740Z,33.65
2022-08-10T20:21:16.403Z,32.60
2022-08-10T20:24:09.137Z,32.83
2022-08-10T20:26:51.401Z,32.88
2022-08-10T20:29:58.405Z,32.86
2022-08-10T20:32:26.458Z,32.87
2022-08-10T20:35:05.719Z,32.82
2022-08-10T20:38:03.806Z,31.86
2022-08-10T20:40:27.843Z,31.26
2022-08-10T20:43:00.238Z,32.15
2022-08-10T20:45:46.433Z,33.61
2022-08-10T20:48:31.125Z,34.01
2022-08-10T20:51:00.496Z,32.76
2022-08-10T20:53:33.776Z,31.47
2022-08-10T20:56:08.561Z,31.67
2022-08-10T20:58:54.988Z,32.35
2022-08-10T21:02:07.175Z,33.45
2022-08-10T21:04:42.196Z,34.46
2022-08-10T21:07:57.882Z,32.94
2022-08-10T21:10:45.887Z,33.50
2022-08-10T21:13:24.642Z,32.40
2022-08-10T21:16:03.240Z,32.95
2022-08-10T21:18:33.743Z,33.72
2022-08-10T21:21:37.660Z,33.09
2022-08-10T21:24:14.790Z,33.20
2022-08-10T21:26:59.328Z,33.44
2022-08-10T21:29:55.914Z,33.39
2022-08-10T21:32:48.772Z,34.54
2022-08-10T21:35:40.387Z,36.43
2022-08-10T21:38:28.249Z,37.38
2022-08-10T21:41:17.700Z,37.18
2022-08-10T21:44:13.951Z,36.93
2022-08-10T21:47:01.759Z,36.45
2022-08-10T21:50:07.063Z,34.76
2022-08-10T21:53:06.259Z,35.65
2022-08-10T21:56:09.595Z,36.36
2022-08-10T21:59:07.116Z,36.75
2022-08-10T22:02:00.112Z,37.63
2022-08-10T22:04:46.346Z,36.42
2022-08-10T22:07:38.687Z,37.62
2022-08-10T22:10:26.958Z,37.61
2022-08-10T22:13:16.771Z,37.76
2022-08-10T22:16:11.912Z,37.98
2022-08-10T22:19:03.692Z,38.36
2022-08-10T22:22:04.416Z,38.17
2022-08-10T22:25:16.700Z,38.59
2022-08-10T22:28:03.242Z,38.67
2022-08-10T22:31:22.852Z,38.61
2022-08-10T22:34:16.015Z,38.04
2022-08-10T22:37:45.827Z,37.01
2022-08-10T22:40:37.983Z,36.28
2022-08-10T22:43:35.877Z,36.47
2022-08-10T22:46:30.703Z,36.01
2022-08-10T22:49:00.371Z,36.94
2022-08-10T22:51:51.833Z,37.41
2022-08-10T22:54:52.196Z,36.55
2022-08-10T22:57:38.112Z,36.04
2022-08-10T23:00:30.587Z,36.76
2022-08-10T23:02:59.351Z,37.09
2022-08-10T23:05:33.077Z,36.57
2022-08-10T23:08:29.534Z,37.24
2022-08-10T23:11:03.235Z,37.23
2022-08-10T23:13:37.654Z,37.06
2022-08-10T23:16:38.467Z,37.90
2022-08-10T23:19:32.483Z,37.71
2022-08-10T23:22:11.435Z,37.98
2022-08-10T23:24:55.121Z,38.11
2022-08-10T23:27:38.425Z,38.71
2022-08-10T23:30:17.563Z,38.73
2022-08-10T23:32:48.800Z,39.49
2022-08-10T23:36:05.634Z,40.37
2022-08-10T23:38:07.946Z,40.70
2022-08-10T23:40:35.473Z,40.43
2022-08-10T23:43:03.726Z,40.30
2022-08-10T23:45:52.222Z,41.20
2022-08-10T23:48:24.929Z,40.66
2022-08-10T23:50:58.330Z,40.75
2022-08-10T23:53:35.287Z,40.74
2022-08-10T23:56:10.305Z,41.82
2022-08-10T23:58:48.029Z,44.08
